Time;durP1;ratioP1;P1;durP2;ratioP2;P2;SDS_P1;SDS_P2;PMS_P1;PMS_P2;Temp;Humidity;BMP_temperature;BMP_pressure;BME280_temperature;BME280_humidity;BME280_pressure;Samples;Min_cycle;Max_cycle;Signal;HPM_P1;HPM_P2
2024/01/31 00:00:38;;;;;;;8.10;5.20;;;;;;;;;;6197077;23;20384;-89
2024/01/31 00:03:04;;;;;;;5.37;4.87;;;;;;;;;;6195395;23;20387;-92
2024/01/31 00:05:30;;;;;;;4.80;4.30;;;;;;;;;;6219894;23;20391;-90
2024/01/31 00:07:56;;;;;;;4.80;4.40;;;;;;;;;;6219167;23;20551;-90
2024/01/31 00:10:22;;;;;;;5.37;4.53;;;;;;;;;;6166124;23;20390;-91
2024/01/31 00:12:48;;;;;;;5.80;4.27;;;;;;;;;;6169406;23;20506;-89
2024/01/31 00:15:16;;;;;;;5.03;4.53;;;;;;;;;;6169234;23;20386;-90
2024/01/31 00:17:44;;;;;;;4.90;3.70;;;;;;;;;;6195219;23;20375;-90
2024/01/31 00:20:11;;;;;;;5.80;3.80;;;;;;;;;;6168619;23;20371;-91
2024/01/31 00:22:37;;;;;;;6.10;5.10;;;;;;;;;;6198242;23;20458;-91
2024/01/31 00:25:06;;;;;;;5.03;4.10;;;;;;;;;;6168543;23;20390;-90
2024/01/31 00:27:32;;;;;;;5.93;5.33;;;;;;;;;;6173408;23;20379;-91
2024/01/31 00:29:58;;;;;;;6.13;3.73;;;;;;;;;;6194679;23;21209;-91
2024/01/31 00:32:24;;;;;;;5.80;3.60;;;;;;;;;;6171831;23;20419;-92
2024/01/31 00:34:50;;;;;;;7.70;5.47;;;;;;;;;;6195391;23;20437;-91
2024/01/31 00:37:16;;;;;;;6.60;4.20;;;;;;;;;;6202304;23;20366;-90
2024/01/31 00:39:42;;;;;;;4.63;3.77;;;;;;;;;;6196802;23;20698;-90
2024/01/31 00:42:08;;;;;;;5.87;4.50;;;;;;;;;;6197702;23;20386;-90
2024/01/31 00:44:35;;;;;;;4.70;4.20;;;;;;;;;;6195929;23;20383;-92
2024/01/31 00:47:01;;;;;;;6.40;4.33;;;;;;;;;;6223303;23;20401;-92
2024/01/31 00:49:27;;;;;;;9.80;4.60;;;;;;;;;;6196353;23;20446;-92
2024/01/31 00:51:53;;;;;;;12.93;5.50;;;;;;;;;;6195818;23;20450;-92
2024/01/31 00:54:19;;;;;;;14.00;7.77;;;;;;;;;;6195784;23;20383;-92
2024/01/31 00:56:45;;;;;;;25.87;14.23;;;;;;;;;;6196863;23;20438;-91
2024/01/31 00:59:11;;;;;;;72.07;32.67;;;;;;;;;;6195843;23;20374;-92
2024/01/31 01:01:37;;;;;;;18.63;8.60;;;;;;;;;;6195852;23;20379;-90
2024/01/31 01:04:03;;;;;;;28.53;15.03;;;;;;;;;;6193572;23;20478;-91
2024/01/31 01:06:29;;;;;;;24.43;12.60;;;;;;;;;;6220861;23;20423;-91
2024/01/31 01:08:55;;;;;;;4.83;4.40;;;;;;;;;;6194692;23;20386;-91
2024/01/31 01:11:21;;;;;;;4.53;4.00;;;;;;;;;;6222562;23;20368;-89
2024/01/31 01:13:48;;;;;;;9.70;4.97;;;;;;;;;;6221238;23;20363;-91
2024/01/31 01:16:14;;;;;;;5.60;4.33;;;;;;;;;;6220666;23;20368;-92
2024/01/31 01:18:40;;;;;;;10.13;5.20;;;;;;;;;;6222136;23;20346;-92
2024/01/31 01:21:06;;;;;;;6.83;4.80;;;;;;;;;;6196181;23;20853;-91
2024/01/31 01:23:32;;;;;;;6.80;4.77;;;;;;;;;;6199063;23;20390;-90
2024/01/31 01:25:58;;;;;;;6.27;4.30;;;;;;;;;;6221125;23;20672;-90
2024/01/31 01:28:24;;;;;;;6.00;5.37;;;;;;;;;;6200570;23;20375;-92
2024/01/31 01:30:50;;;;;;;7.00;4.43;;;;;;;;;;6195140;23;20470;-91
2024/01/31 01:33:16;;;;;;;5.87;4.07;;;;;;;;;;6195834;23;20524;-91
2024/01/31 01:35:44;;;;;;;7.90;5.10;;;;;;;;;;6221198;23;20407;-91
2024/01/31 01:38:10;;;;;;;6.30;4.73;;;;;;;;;;6193619;23;20406;-92
2024/01/31 01:40:36;;;;;;;5.57;3.73;;;;;;;;;;6197353;23;20375;-92
2024/01/31 01:43:03;;;;;;;5.50;3.70;;;;;;;;;;6195945;23;20398;-88
2024/01/31 01:45:29;;;;;;;6.00;3.73;;;;;;;;;;6220672;23;20427;-92
2024/01/31 01:47:55;;;;;;;4.60;3.57;;;;;;;;;;6194209;23;20742;-91
2024/01/31 01:50:23;;;;;;;5.17;4.00;;;;;;;;;;6195237;23;20390;-88
2024/01/31 01:52:49;;;;;;;4.60;4.20;;;;;;;;;;6192920;23;20511;-91
2024/01/31 01:55:15;;;;;;;4.47;3.97;;;;;;;;;;6220999;23;20679;-90
2024/01/31 01:57:41;;;;;;;4.63;3.77;;;;;;;;;;6193854;23;20403;-92
2024/01/31 02:00:09;;;;;;;9.80;4.30;;;;;;;;;;6195480;23;20379;-92
2024/01/31 02:02:35;;;;;;;5.03;3.80;;;;;;;;;;6220786;23;20371;-92
2024/01/31 02:05:01;;;;;;;5.40;4.20;;;;;;;;;;6218445;23;20402;-93
2024/01/31 02:07:27;;;;;;;5.23;3.93;;;;;;;;;;6194224;23;20375;-91
2024/01/31 02:09:53;;;;;;;5.03;3.27;;;;;;;;;;6189970;23;20375;-89
2024/01/31 02:12:20;;;;;;;5.07;4.33;;;;;;;;;;6218335;23;20963;-90
2024/01/31 02:14:47;;;;;;;6.73;4.40;;;;;;;;;;6219255;23;20410;-91
2024/01/31 02:17:13;;;;;;;5.53;3.33;;;;;;;;;;6194048;23;20437;-92
2024/01/31 02:19:39;;;;;;;3.87;3.10;;;;;;;;;;6198807;23;20479;-90
2024/01/31 02:22:06;;;;;;;4.13;3.73;;;;;;;;;;6193187;23;20387;-90
2024/01/31 02:24:32;;;;;;;4.93;3.83;;;;;;;;;;6195261;23;20897;-92
2024/01/31 02:26:58;;;;;;;5.57;3.63;;;;;;;;;;6215428;23;20382;-91
2024/01/31 02:29:24;;;;;;;8.20;3.73;;;;;;;;;;6198622;23;20369;-89
2024/01/31 02:31:50;;;;;;;6.80;3.70;;;;;;;;;;6193955;23;20863;-89
2024/01/31 02:34:16;;;;;;;3.23;2.90;;;;;;;;;;6196871;23;20382;-88
2024/01/31 02:36:42;;;;;;;5.50;3.70;;;;;;;;;;6194325;23;20370;-87
2024/01/31 02:39:08;;;;;;;6.20;3.80;;;;;;;;;;6222460;23;20823;-90
2024/01/31 02:41:34;;;;;;;4.30;3.53;;;;;;;;;;6220212;23;20759;-87
2024/01/31 02:44:00;;;;;;;7.33;4.10;;;;;;;;;;6199526;23;20422;-89
2024/01/31 02:46:26;;;;;;;5.50;4.23;;;;;;;;;;6221607;23;20381;-91
2024/01/31 02:48:52;;;;;;;4.53;4.13;;;;;;;;;;6197416;23;20379;-89
2024/01/31 02:51:18;;;;;;;4.67;3.50;;;;;;;;;;6194924;23;20386;-92
2024/01/31 02:53:44;;;;;;;6.00;4.13;;;;;;;;;;6219057;23;20860;-91
2024/01/31 02:56:10;;;;;;;4.50;3.80;;;;;;;;;;6196187;23;20386;-91
2024/01/31 02:58:36;;;;;;;4.43;4.00;;;;;;;;;;6197618;23;20380;-91
2024/01/31 03:01:05;;;;;;;6.37;4.13;;;;;;;;;;6194559;23;20759;-86
2024/01/31 03:03:31;;;;;;;6.73;4.00;;;;;;;;;;6198653;23;20383;-90
2024/01/31 03:05:57;;;;;;;5.63;3.60;;;;;;;;;;6197019;23;20397;-91
2024/01/31 03:08:23;;;;;;;4.90;4.13;;;;;;;;;;6196372;23;20386;-89
2024/01/31 03:10:49;;;;;;;4.10;3.70;;;;;;;;;;6196152;23;20437;-90
2024/01/31 03:13:15;;;;;;;8.23;3.77;;;;;;;;;;6163047;23;20889;-89
2024/01/31 03:15:41;;;;;;;5.43;4.10;;;;;;;;;;6144066;23;20443;-90
2024/01/31 03:18:07;;;;;;;4.83;4.20;;;;;;;;;;6161115;23;20353;-91
2024/01/31 03:20:34;;;;;;;4.13;3.13;;;;;;;;;;6135907;23;20381;-90
2024/01/31 03:23:00;;;;;;;7.10;3.73;;;;;;;;;;6134684;23;20474;-88
2024/01/31 03:25:26;;;;;;;3.47;3.17;;;;;;;;;;6159000;23;20377;-90
2024/01/31 03:27:53;;;;;;;4.50;3.60;;;;;;;;;;6134679;23;20393;-86
2024/01/31 03:30:19;;;;;;;4.10;3.33;;;;;;;;;;6133279;23;20389;-92
2024/01/31 03:32:45;;;;;;;5.20;3.27;;;;;;;;;;6160351;23;20424;-91
2024/01/31 03:35:11;;;;;;;7.07;3.70;;;;;;;;;;6134949;23;20405;-91
2024/01/31 03:37:37;;;;;;;8.23;4.20;;;;;;;;;;6138224;23;20405;-91
2024/01/31 03:40:06;;;;;;;5.20;3.37;;;;;;;;;;6134766;23;20409;-92
2024/01/31 03:42:32;;;;;;;3.80;3.47;;;;;;;;;;6136604;23;20391;-90
2024/01/31 03:44:58;;;;;;;5.30;3.30;;;;;;;;;;6183404;23;20387;-91
2024/01/31 03:47:24;;;;;;;5.87;3.80;;;;;;;;;;6170900;23;20449;-89
2024/01/31 03:49:52;;;;;;;3.83;3.30;;;;;;;;;;6191046;23;20383;-91
2024/01/31 03:52:18;;;;;;;6.10;3.70;;;;;;;;;;6196850;23;20418;-90
2024/01/31 03:54:44;;;;;;;4.13;3.10;;;;;;;;;;6195615;23;20398;-93
2024/01/31 03:57:10;;;;;;;4.50;4.00;;;;;;;;;;6221393;23;20367;-90
2024/01/31 03:59:37;;;;;;;6.83;4.20;;;;;;;;;;6194485;23;20390;-91
2024/01/31 04:02:03;;;;;;;8.30;4.30;;;;;;;;;;6222436;23;20379;-92
2024/01/31 04:04:29;;;;;;;11.80;4.33;;;;;;;;;;6194853;23;20371;-89
2024/01/31 04:06:55;;;;;;;6.40;5.77;;;;;;;;;;6195836;23;20391;-88
2024/01/31 04:09:21;;;;;;;6.33;4.70;;;;;;;;;;6218573;23;20363;-88
2024/01/31 04:11:47;;;;;;;4.40;4.00;;;;;;;;;;6197259;23;20528;-87
2024/01/31 04:14:13;;;;;;;6.60;4.10;;;;;;;;;;6194772;23;20785;-90
2024/01/31 04:16:39;;;;;;;3.93;3.60;;;;;;;;;;6199162;23;20409;-90
2024/01/31 04:19:06;;;;;;;5.33;3.90;;;;;;;;;;6219960;23;20371;-90
2024/01/31 04:21:32;;;;;;;4.23;3.93;;;;;;;;;;6219906;23;20403;-91
2024/01/31 04:23:58;;;;;;;4.20;3.63;;;;;;;;;;6219995;23;20391;-90
2024/01/31 04:26:24;;;;;;;5.97;3.50;;;;;;;;;;6219505;23;20385;-90
2024/01/31 04:28:50;;;;;;;4.43;4.03;;;;;;;;;;6246086;23;20427;-91
2024/01/31 04:31:16;;;;;;;4.87;3.63;;;;;;;;;;6193107;23;20441;-89
2024/01/31 04:33:42;;;;;;;6.10;4.53;;;;;;;;;;6220135;23;20456;-89
2024/01/31 04:36:08;;;;;;;5.90;4.70;;;;;;;;;;6220823;23;20399;-91
2024/01/31 04:38:34;;;;;;;4.90;4.17;;;;;;;;;;6221692;23;20438;-89
2024/01/31 04:41:00;;;;;;;5.23;3.80;;;;;;;;;;6218321;23;20754;-89
2024/01/31 04:43:26;;;;;;;5.50;4.50;;;;;;;;;;6223513;23;20861;-89
2024/01/31 04:45:53;;;;;;;8.63;6.10;;;;;;;;;;6219717;23;20383;-90
2024/01/31 04:48:19;;;;;;;5.30;4.13;;;;;;;;;;6243014;23;20351;-89
2024/01/31 04:50:45;;;;;;;8.77;5.80;;;;;;;;;;6220215;23;20486;-91
2024/01/31 04:53:11;;;;;;;6.23;4.33;;;;;;;;;;6196800;23;20573;-90
2024/01/31 04:55:37;;;;;;;9.43;6.23;;;;;;;;;;6195306;23;20466;-89
2024/01/31 04:58:03;;;;;;;11.53;7.53;;;;;;;;;;6196819;23;20830;-88
2024/01/31 05:00:29;;;;;;;8.20;5.10;;;;;;;;;;6195209;23;20390;-89
2024/01/31 05:02:55;;;;;;;8.10;4.60;;;;;;;;;;6223939;23;20375;-88
2024/01/31 05:05:21;;;;;;;8.67;5.77;;;;;;;;;;6220202;23;20371;-89
2024/01/31 05:07:47;;;;;;;8.37;5.13;;;;;;;;;;6196178;23;20438;-89
2024/01/31 05:10:13;;;;;;;19.43;8.10;;;;;;;;;;6194345;23;20844;-90
2024/01/31 05:12:39;;;;;;;11.13;6.33;;;;;;;;;;6199263;23;20430;-87
2024/01/31 05:15:05;;;;;;;13.13;7.47;;;;;;;;;;6195492;23;20371;-91
2024/01/31 05:17:31;;;;;;;15.40;7.00;;;;;;;;;;6195168;23;20383;-89
2024/01/31 05:19:57;;;;;;;13.63;9.07;;;;;;;;;;6192278;23;20378;-90
2024/01/31 05:22:28;;;;;;;24.70;8.63;;;;;;;;;;6221024;23;20375;-89
2024/01/31 05:24:54;;;;;;;7.93;5.80;;;;;;;;;;6193843;23;20383;-89
2024/01/31 05:27:20;;;;;;;8.00;5.97;;;;;;;;;;6200130;23;20383;-92
2024/01/31 05:29:46;;;;;;;5.43;4.93;;;;;;;;;;6195150;23;20383;-87
2024/01/31 05:32:12;;;;;;;8.17;4.27;;;;;;;;;;6223378;23;20504;-91
2024/01/31 05:34:40;;;;;;;5.63;3.70;;;;;;;;;;6197271;23;20430;-88
2024/01/31 05:37:06;;;;;;;5.70;4.50;;;;;;;;;;6219454;23;20336;-91
2024/01/31 05:39:32;;;;;;;8.63;4.83;;;;;;;;;;6222421;23;20363;-91
2024/01/31 05:41:58;;;;;;;7.27;5.50;;;;;;;;;;6192431;23;20371;-90
2024/01/31 05:44:24;;;;;;;7.50;5.87;;;;;;;;;;6199967;23;20382;-88
2024/01/31 05:46:50;;;;;;;8.10;5.80;;;;;;;;;;6191389;23;21062;-90
2024/01/31 05:49:16;;;;;;;8.50;5.70;;;;;;;;;;6193780;23;20386;-89
2024/01/31 05:51:42;;;;;;;12.13;4.80;;;;;;;;;;6193130;23;20375;-91
2024/01/31 05:54:08;;;;;;;5.13;4.40;;;;;;;;;;6195102;23;20379;-88
2024/01/31 05:56:37;;;;;;;7.40;4.50;;;;;;;;;;6193846;23;20394;-91
2024/01/31 05:59:02;;;;;;;5.27;4.83;;;;;;;;;;6216617;23;20379;-90
2024/01/31 06:01:29;;;;;;;4.50;4.00;;;;;;;;;;6245935;23;20370;-89
2024/01/31 06:03:55;;;;;;;6.60;5.53;;;;;;;;;;6219672;23;20378;-91
2024/01/31 06:06:21;;;;;;;5.20;4.80;;;;;;;;;;6221013;23;20379;-90
2024/01/31 06:08:47;;;;;;;8.00;5.80;;;;;;;;;;6217753;23;20372;-89
2024/01/31 06:11:13;;;;;;;10.57;5.70;;;;;;;;;;6246854;23;20467;-90
2024/01/31 06:13:39;;;;;;;9.17;5.33;;;;;;;;;;6217511;23;20453;-91
2024/01/31 06:16:06;;;;;;;7.83;5.17;;;;;;;;;;6225622;23;20390;-90
2024/01/31 06:18:34;;;;;;;5.37;3.73;;;;;;;;;;6246030;23;20729;-90
2024/01/31 06:21:03;;;;;;;5.93;5.33;;;;;;;;;;6217871;23;20384;-89
2024/01/31 06:23:29;;;;;;;4.70;4.30;;;;;;;;;;6220465;23;20360;-90
2024/01/31 06:25:57;;;;;;;6.60;5.30;;;;;;;;;;6217756;23;20487;-91
2024/01/31 06:28:23;;;;;;;8.17;5.40;;;;;;;;;;6222399;23;20458;-93
2024/01/31 06:30:58;;;;;;;6.00;5.10;;;;;;;;;;6193707;23;20397;-89
2024/01/31 06:33:31;;;;;;;3.93;3.63;;;;;;;;;;6196785;23;20932;-87
2024/01/31 06:35:57;;;;;;;5.53;4.37;;;;;;;;;;6218832;23;20819;-89
2024/01/31 06:38:23;;;;;;;9.90;5.17;;;;;;;;;;6218804;23;20791;-86
2024/01/31 06:40:49;;;;;;;5.23;4.20;;;;;;;;;;6197052;23;20442;-91
2024/01/31 06:43:15;;;;;;;5.10;4.50;;;;;;;;;;6195099;23;21215;-88
2024/01/31 06:45:45;;;;;;;6.07;5.20;;;;;;;;;;6196392;23;20893;-89
2024/01/31 06:48:12;;;;;;;5.53;5.00;;;;;;;;;;6197323;23;20387;-90
2024/01/31 06:50:38;;;;;;;6.37;4.70;;;;;;;;;;6162277;23;20391;-89
2024/01/31 06:53:04;;;;;;;7.33;5.00;;;;;;;;;;6165742;23;20423;-89
2024/01/31 06:55:30;;;;;;;5.73;5.23;;;;;;;;;;6163683;23;20384;-91
2024/01/31 06:57:57;;;;;;;7.13;4.40;;;;;;;;;;6165020;23;20386;-88
2024/01/31 07:00:23;;;;;;;4.90;4.20;;;;;;;;;;6161352;23;20384;-91
2024/01/31 07:02:52;;;;;;;9.27;5.07;;;;;;;;;;6169606;23;20968;-89
2024/01/31 07:05:18;;;;;;;5.37;3.90;;;;;;;;;;6165981;23;20452;-89
2024/01/31 07:07:48;;;;;;;8.03;5.10;;;;;;;;;;6165832;23;20720;-94
2024/01/31 07:10:14;;;;;;;5.60;5.10;;;;;;;;;;6165962;23;20418;-88
2024/01/31 07:12:41;;;;;;;8.00;7.03;;;;;;;;;;6167783;23;21252;-91
2024/01/31 07:15:07;;;;;;;8.83;6.03;;;;;;;;;;6163699;23;20383;-88
2024/01/31 07:17:33;;;;;;;9.40;5.50;;;;;;;;;;6168733;23;20379;-88
2024/01/31 07:19:59;;;;;;;6.47;4.73;;;;;;;;;;6164958;23;20380;-88
2024/01/31 07:22:26;;;;;;;9.90;5.17;;;;;;;;;;6193151;23;20383;-88
2024/01/31 07:24:52;;;;;;;6.10;5.10;;;;;;;;;;6194240;23;20383;-87
2024/01/31 07:27:23;;;;;;;6.10;5.53;;;;;;;;;;6197591;23;20402;-90
2024/01/31 07:29:50;;;;;;;7.57;5.90;;;;;;;;;;6195907;23;20379;-89
2024/01/31 07:32:16;;;;;;;13.87;6.40;;;;;;;;;;6222763;23;20414;-86
2024/01/31 07:34:42;;;;;;;8.83;6.70;;;;;;;;;;6220405;23;20474;-92
2024/01/31 07:37:09;;;;;;;6.67;4.93;;;;;;;;;;6198340;23;20383;-88
2024/01/31 07:39:35;;;;;;;8.57;5.90;;;;;;;;;;6196457;23;20379;-88
2024/01/31 07:42:01;;;;;;;8.40;5.50;;;;;;;;;;6196851;23;20466;-87
2024/01/31 07:44:29;;;;;;;10.70;6.70;;;;;;;;;;6164422;23;20382;-88
2024/01/31 07:46:55;;;;;;;8.70;6.70;;;;;;;;;;6140092;23;20383;-87
2024/01/31 07:49:21;;;;;;;9.67;6.80;;;;;;;;;;6141554;23;21184;-87
2024/01/31 07:51:47;;;;;;;12.57;7.30;;;;;;;;;;6138351;23;20403;-88
2024/01/31 07:54:16;;;;;;;8.93;5.90;;;;;;;;;;6165751;23;20372;-88
2024/01/31 07:56:42;;;;;;;8.67;5.90;;;;;;;;;;6142581;23;20393;-93
2024/01/31 07:59:08;;;;;;;8.53;6.60;;;;;;;;;;6139652;23;20384;-88
2024/01/31 08:01:34;;;;;;;7.20;6.37;;;;;;;;;;6141300;23;20456;-87
2024/01/31 08:04:00;;;;;;;12.80;6.30;;;;;;;;;;6138446;23;20485;-86
2024/01/31 08:06:26;;;;;;;8.03;6.90;;;;;;;;;;6141247;23;20902;-86
2024/01/31 08:08:52;;;;;;;7.70;6.90;;;;;;;;;;6161728;23;20372;-86
2024/01/31 08:11:18;;;;;;;29.27;7.50;;;;;;;;;;6167483;23;20372;-88
2024/01/31 08:13:44;;;;;;;9.17;6.97;;;;;;;;;;6167676;23;20416;-88
2024/01/31 08:16:12;;;;;;;9.40;7.20;;;;;;;;;;6162219;23;20440;-88
2024/01/31 08:18:38;;;;;;;8.30;6.97;;;;;;;;;;6144858;23;20404;-89
2024/01/31 08:21:04;;;;;;;8.20;6.70;;;;;;;;;;6168723;23;20377;-88
2024/01/31 08:23:30;;;;;;;11.20;7.77;;;;;;;;;;6225824;23;20360;-88
2024/01/31 08:25:56;;;;;;;12.63;6.60;;;;;;;;;;6196684;23;20381;-88
2024/01/31 08:28:22;;;;;;;9.17;7.43;;;;;;;;;;6196046;23;20774;-91
2024/01/31 08:30:48;;;;;;;12.63;8.20;;;;;;;;;;6195948;23;20376;-89
2024/01/31 08:33:14;;;;;;;9.70;8.40;;;;;;;;;;6197392;23;20423;-87
2024/01/31 08:35:40;;;;;;;10.23;7.77;;;;;;;;;;6221091;23;20387;-90
2024/01/31 08:38:06;;;;;;;16.27;8.53;;;;;;;;;;6196892;23;20432;-86
2024/01/31 08:40:32;;;;;;;13.77;9.60;;;;;;;;;;6197065;23;20415;-91
2024/01/31 08:42:58;;;;;;;10.60;9.57;;;;;;;;;;6197653;23;20386;-91
2024/01/31 08:45:27;;;;;;;19.23;9.80;;;;;;;;;;6197755;23;20406;-92
2024/01/31 08:47:53;;;;;;;11.10;7.93;;;;;;;;;;6197036;23;20474;-92
2024/01/31 08:50:19;;;;;;;11.33;8.47;;;;;;;;;;6197463;23;20387;-91
2024/01/31 08:52:45;;;;;;;13.20;10.77;;;;;;;;;;6194028;23;20427;-90
2024/01/31 08:55:13;;;;;;;16.07;9.33;;;;;;;;;;6195535;23;20390;-89
2024/01/31 08:57:39;;;;;;;14.73;10.53;;;;;;;;;;6194128;23;20375;-90
2024/01/31 09:00:05;;;;;;;13.07;9.30;;;;;;;;;;6192971;23;20466;-87
2024/01/31 09:02:31;;;;;;;15.23;9.63;;;;;;;;;;6193409;23;20379;-88
2024/01/31 09:04:59;;;;;;;14.80;10.30;;;;;;;;;;6194382;23;20908;-91
2024/01/31 09:07:25;;;;;;;16.77;9.80;;;;;;;;;;6219818;23;20409;-90
2024/01/31 09:09:51;;;;;;;12.10;9.83;;;;;;;;;;6196694;23;20379;-89
2024/01/31 09:12:17;;;;;;;16.73;10.20;;;;;;;;;;6218212;23;20502;-88
2024/01/31 09:14:43;;;;;;;17.07;11.37;;;;;;;;;;6195049;23;20383;-91
2024/01/31 09:17:09;;;;;;;14.53;10.60;;;;;;;;;;6196901;23;20406;-92
2024/01/31 09:19:35;;;;;;;14.07;9.30;;;;;;;;;;6196267;23;20766;-90
2024/01/31 09:22:01;;;;;;;11.73;8.20;;;;;;;;;;6218694;23;20367;-90
2024/01/31 09:24:27;;;;;;;17.03;12.23;;;;;;;;;;6198756;23;20387;-92
2024/01/31 09:26:53;;;;;;;10.67;8.80;;;;;;;;;;6195163;23;20386;-92
2024/01/31 09:29:19;;;;;;;15.70;9.90;;;;;;;;;;6196408;23;20395;-90
2024/01/31 09:31:45;;;;;;;13.10;9.03;;;;;;;;;;6193810;23;20470;-87
2024/01/31 09:34:11;;;;;;;17.33;9.97;;;;;;;;;;6218561;23;20694;-90
2024/01/31 09:36:37;;;;;;;15.60;9.17;;;;;;;;;;6220140;23;20391;-89
2024/01/31 09:39:03;;;;;;;20.07;11.63;;;;;;;;;;6220168;23;20835;-90
2024/01/31 09:41:29;;;;;;;12.23;8.87;;;;;;;;;;6220082;23;20408;-89
2024/01/31 09:43:55;;;;;;;14.53;9.77;;;;;;;;;;6195377;23;20382;-87
2024/01/31 09:46:21;;;;;;;11.77;9.20;;;;;;;;;;6195095;23;20454;-90
2024/01/31 09:48:47;;;;;;;16.43;9.07;;;;;;;;;;6195347;23;20710;-88
2024/01/31 09:51:13;;;;;;;14.77;10.20;;;;;;;;;;6194978;23;20462;-91
2024/01/31 09:53:40;;;;;;;17.87;8.90;;;;;;;;;;6195964;23;20508;-88
2024/01/31 09:56:06;;;;;;;14.60;9.20;;;;;;;;;;6223195;23;20364;-90
2024/01/31 09:58:32;;;;;;;13.30;8.70;;;;;;;;;;6195841;23;20399;-93
2024/01/31 10:01:00;;;;;;;10.90;8.23;;;;;;;;;;6198223;23;20391;-90
2024/01/31 10:03:26;;;;;;;14.40;10.20;;;;;;;;;;6196495;23;20375;-90
2024/01/31 10:05:52;;;;;;;9.90;7.93;;;;;;;;;;6197691;23;20403;-88
2024/01/31 10:08:18;;;;;;;15.50;9.57;;;;;;;;;;6195283;23;20381;-91
2024/01/31 10:10:44;;;;;;;15.03;9.87;;;;;;;;;;6196181;23;20509;-90
2024/01/31 10:13:10;;;;;;;12.27;8.87;;;;;;;;;;6219518;23;20391;-93
2024/01/31 10:15:36;;;;;;;13.67;9.70;;;;;;;;;;6198435;23;20470;-91
2024/01/31 10:18:02;;;;;;;16.30;10.70;;;;;;;;;;6194546;23;20379;-92
2024/01/31 10:20:28;;;;;;;17.10;11.03;;;;;;;;;;6220625;23;20356;-92
2024/01/31 10:22:54;;;;;;;12.40;9.60;;;;;;;;;;6220363;23;20363;-92
2024/01/31 10:25:20;;;;;;;13.07;9.23;;;;;;;;;;6195427;23;20383;-92
2024/01/31 10:27:46;;;;;;;11.80;9.23;;;;;;;;;;6220821;23;20438;-92
2024/01/31 10:30:13;;;;;;;16.87;10.03;;;;;;;;;;6197167;23;20383;-90
2024/01/31 10:32:40;;;;;;;18.87;9.67;;;;;;;;;;6195883;23;20437;-90
2024/01/31 10:35:06;;;;;;;12.83;9.50;;;;;;;;;;6195965;23;20474;-90
2024/01/31 10:37:32;;;;;;;13.90;9.93;;;;;;;;;;6195768;23;20368;-92
2024/01/31 10:40:04;;;;;;;12.73;9.77;;;;;;;;;;6196233;23;20386;-88
2024/01/31 10:42:30;;;;;;;14.17;9.50;;;;;;;;;;6198248;23;20714;-91
2024/01/31 10:44:56;;;;;;;16.40;12.30;;;;;;;;;;6198924;23;20386;-90
2024/01/31 10:47:22;;;;;;;14.80;9.50;;;;;;;;;;6197745;23;20387;-90
2024/01/31 10:49:48;;;;;;;9.60;8.27;;;;;;;;;;6196193;23;20391;-91
2024/01/31 10:52:15;;;;;;;13.00;10.27;;;;;;;;;;6196477;23;20961;-91
2024/01/31 10:54:44;;;;;;;14.83;10.67;;;;;;;;;;6195651;23;20383;-91
2024/01/31 10:57:10;;;;;;;15.20;10.30;;;;;;;;;;6200639;23;20379;-92
2024/01/31 10:59:36;;;;;;;14.33;9.40;;;;;;;;;;6197201;23;20897;-91
2024/01/31 11:02:02;;;;;;;13.60;8.73;;;;;;;;;;6221522;23;20857;-90
2024/01/31 11:04:28;;;;;;;15.03;10.70;;;;;;;;;;6221606;23;20371;-90
2024/01/31 11:06:55;;;;;;;10.70;9.50;;;;;;;;;;6207367;23;20446;-91
2024/01/31 11:09:25;;;;;;;28.73;9.50;;;;;;;;;;6201714;23;20387;-91
2024/01/31 11:12:04;;;;;;;12.37;9.47;;;;;;;;;;6221260;23;20750;-89
2024/01/31 11:14:30;;;;;;;15.10;9.03;;;;;;;;;;6197214;23;20383;-89
2024/01/31 11:17:05;;;;;;;11.33;9.80;;;;;;;;;;6198351;23;20379;-92
2024/01/31 11:19:31;;;;;;;11.93;9.43;;;;;;;;;;6222122;23;20494;-91
2024/01/31 11:22:00;;;;;;;14.07;10.57;;;;;;;;;;6170756;23;20379;-91
2024/01/31 11:24:26;;;;;;;18.60;11.17;;;;;;;;;;6195288;23;20364;-90
2024/01/31 11:26:52;;;;;;;13.10;10.00;;;;;;;;;;6195574;23;20371;-90
2024/01/31 11:29:18;;;;;;;13.97;10.13;;;;;;;;;;6222301;23;20379;-93
2024/01/31 11:31:44;;;;;;;11.67;10.47;;;;;;;;;;6170485;23;20381;-90
2024/01/31 11:34:10;;;;;;;13.80;8.70;;;;;;;;;;6166152;23;20455;-89
2024/01/31 11:36:36;;;;;;;12.30;10.00;;;;;;;;;;6170250;23;20395;-90
2024/01/31 11:39:05;;;;;;;15.57;10.77;;;;;;;;;;6168872;23;20383;-91
2024/01/31 11:41:31;;;;;;;13.63;10.40;;;;;;;;;;6194308;23;20445;-90
2024/01/31 11:43:56;;;;;;;22.97;12.20;;;;;;;;;;6169791;23;20765;-91
2024/01/31 11:46:22;;;;;;;15.07;9.67;;;;;;;;;;6171483;23;20371;-91
2024/01/31 11:48:48;;;;;;;13.27;10.60;;;;;;;;;;6199602;23;20367;-91
2024/01/31 11:51:14;;;;;;;16.00;11.00;;;;;;;;;;6215717;23;20445;-91
2024/01/31 11:53:40;;;;;;;15.50;10.70;;;;;;;;;;6202105;23;20418;-91
2024/01/31 11:56:07;;;;;;;12.93;10.90;;;;;;;;;;6198735;23;20406;-93
2024/01/31 11:58:35;;;;;;;13.07;10.00;;;;;;;;;;6202597;23;20409;-94
2024/01/31 12:01:02;;;;;;;14.20;9.60;;;;;;;;;;6196140;23;20387;-92
2024/01/31 12:03:28;;;;;;;12.63;9.67;;;;;;;;;;6225507;23;20367;-88
2024/01/31 12:05:56;;;;;;;16.07;11.10;;;;;;;;;;6198522;23;20379;-91
2024/01/31 12:08:26;;;;;;;14.80;10.17;;;;;;;;;;6200820;23;20387;-90
2024/01/31 12:10:52;;;;;;;18.53;10.80;;;;;;;;;;6196478;23;20401;-88
2024/01/31 12:13:18;;;;;;;17.47;11.50;;;;;;;;;;6196705;23;20486;-89
2024/01/31 12:15:46;;;;;;;10.93;9.07;;;;;;;;;;6198914;23;20380;-89
2024/01/31 12:18:13;;;;;;;12.67;10.23;;;;;;;;;;6197112;23;20390;-91
2024/01/31 12:20:39;;;;;;;13.23;10.33;;;;;;;;;;6197064;23;20387;-89
2024/01/31 12:23:05;;;;;;;11.83;8.97;;;;;;;;;;6220476;23;20356;-88
2024/01/31 12:25:31;;;;;;;12.30;9.80;;;;;;;;;;6195366;23;20430;-91
2024/01/31 12:27:57;;;;;;;14.63;9.37;;;;;;;;;;6196157;23;20379;-89
2024/01/31 12:30:26;;;;;;;14.73;10.23;;;;;;;;;;6197271;23;20399;-91
2024/01/31 12:32:52;;;;;;;13.60;10.20;;;;;;;;;;6217571;23;20434;-88
2024/01/31 12:35:19;;;;;;;16.40;10.47;;;;;;;;;;6169457;23;20417;-89
2024/01/31 12:37:45;;;;;;;10.63;9.10;;;;;;;;;;6171336;23;20376;-90
2024/01/31 12:40:12;;;;;;;14.70;10.00;;;;;;;;;;6197665;23;20402;-89
2024/01/31 12:42:38;;;;;;;11.90;9.30;;;;;;;;;;6169501;23;20456;-91
2024/01/31 12:45:04;;;;;;;14.17;10.20;;;;;;;;;;6172096;23;20379;-87
2024/01/31 12:47:30;;;;;;;11.90;9.80;;;;;;;;;;6172314;23;20494;-88
2024/01/31 12:49:56;;;;;;;13.10;8.80;;;;;;;;;;6172239;23;20383;-90
2024/01/31 12:52:24;;;;;;;14.00;9.70;;;;;;;;;;6172499;23;20458;-89
2024/01/31 12:54:51;;;;;;;14.17;10.53;;;;;;;;;;6172683;23;20363;-92
2024/01/31 12:57:18;;;;;;;14.30;10.20;;;;;;;;;;6178098;23;20371;-88
2024/01/31 12:59:46;;;;;;;13.70;10.20;;;;;;;;;;6160688;23;20389;-91
2024/01/31 13:02:12;;;;;;;13.10;9.10;;;;;;;;;;6137010;23;20467;-88
2024/01/31 13:04:38;;;;;;;12.03;9.97;;;;;;;;;;6137700;23;20399;-89
2024/01/31 13:07:04;;;;;;;12.83;9.97;;;;;;;;;;6161349;23;20369;-89
2024/01/31 13:09:30;;;;;;;13.27;10.83;;;;;;;;;;6142209;23;20963;-90
2024/01/31 13:11:56;;;;;;;11.03;9.27;;;;;;;;;;6163710;23;20418;-86
2024/01/31 13:14:22;;;;;;;13.77;9.77;;;;;;;;;;6164213;23;20419;-91
2024/01/31 13:16:48;;;;;;;11.60;8.40;;;;;;;;;;6163263;23;20455;-92
2024/01/31 13:19:14;;;;;;;14.50;9.33;;;;;;;;;;6162341;23;20831;-88
2024/01/31 13:21:43;;;;;;;20.97;9.70;;;;;;;;;;6164136;23;20372;-90
2024/01/31 13:24:09;;;;;;;10.30;8.30;;;;;;;;;;6166466;23;20395;-91
2024/01/31 13:26:35;;;;;;;14.30;8.70;;;;;;;;;;6166474;23;20383;-91
2024/01/31 13:29:02;;;;;;;12.83;10.20;;;;;;;;;;6165841;23;20438;-89
2024/01/31 13:31:28;;;;;;;13.70;9.80;;;;;;;;;;6211533;23;20433;-90
2024/01/31 13:33:54;;;;;;;11.87;8.70;;;;;;;;;;6224536;23;20411;-91
2024/01/31 13:36:21;;;;;;;14.23;8.53;;;;;;;;;;6226259;23;20378;-93
2024/01/31 13:38:48;;;;;;;10.57;8.80;;;;;;;;;;6221665;23;20429;-91
2024/01/31 13:41:14;;;;;;;13.63;9.53;;;;;;;;;;6194825;23;20367;-89
2024/01/31 13:43:40;;;;;;;10.20;9.07;;;;;;;;;;6197109;23;20383;-90
2024/01/31 13:46:09;;;;;;;11.63;7.90;;;;;;;;;;6221037;23;20397;-87
2024/01/31 13:48:35;;;;;;;16.23;8.30;;;;;;;;;;6217588;23;20371;-89
2024/01/31 13:51:01;;;;;;;12.07;8.20;;;;;;;;;;6191321;23;20410;-88
2024/01/31 13:53:28;;;;;;;11.57;8.27;;;;;;;;;;6194089;23;20483;-90
2024/01/31 13:55:54;;;;;;;14.23;9.10;;;;;;;;;;6161324;23;20380;-87
2024/01/31 13:58:21;;;;;;;13.70;8.60;;;;;;;;;;6133910;23;20471;-88
2024/01/31 14:00:47;;;;;;;9.23;7.77;;;;;;;;;;6163141;23;21246;-90
2024/01/31 14:03:13;;;;;;;13.97;9.43;;;;;;;;;;6136920;23;20400;-89
2024/01/31 14:05:42;;;;;;;15.37;9.97;;;;;;;;;;6139784;23;20465;-93
2024/01/31 14:08:09;;;;;;;12.83;7.87;;;;;;;;;;6136964;23;20921;-89
2024/01/31 14:10:35;;;;;;;17.23;9.50;;;;;;;;;;6136948;23;20383;-89
2024/01/31 14:13:01;;;;;;;11.70;9.30;;;;;;;;;;6137052;23;20427;-87
2024/01/31 14:15:28;;;;;;;11.80;9.30;;;;;;;;;;6141233;23;20368;-89
2024/01/31 14:17:54;;;;;;;15.33;10.00;;;;;;;;;;6141006;23;20372;-89
2024/01/31 14:20:20;;;;;;;16.10;9.10;;;;;;;;;;6140575;23;20467;-89
2024/01/31 14:22:46;;;;;;;11.73;9.20;;;;;;;;;;6138126;23;20526;-90
2024/01/31 14:25:12;;;;;;;12.13;8.03;;;;;;;;;;6141122;23;21070;-89
2024/01/31 14:27:38;;;;;;;18.53;9.33;;;;;;;;;;6181401;23;20383;-89
2024/01/31 14:30:06;;;;;;;18.80;9.50;;;;;;;;;;6197144;23;20472;-89